createdAt,value
2022-10-17T00:01:06.715Z,22.61
2022-10-17T00:03:36.478Z,22.66
2022-10-17T00:06:12.914Z,22.67
2022-10-17T00:08:41.802Z,22.66
2022-10-17T00:11:16.189Z,22.66
2022-10-17T00:13:43.718Z,22.66
2022-10-17T00:16:13.684Z,22.59
2022-10-17T00:18:41.418Z,22.61
2022-10-17T00:21:18.112Z,22.60
2022-10-17T00:23:46.709Z,22.52
2022-10-17T00:26:15.183Z,22.52
2022-10-17T00:28:42.823Z,22.54
2022-10-17T00:31:11.099Z,22.53
2022-10-17T00:33:39.607Z,22.52
2022-10-17T00:36:10.333Z,22.52
2022-10-17T00:38:37.791Z,22.44
2022-10-17T00:41:06.137Z,22.51
2022-10-17T00:43:57.935Z,22.43
2022-10-17T00:46:29.615Z,22.24
2022-10-17T00:48:58.980Z,22.25
2022-10-17T00:51:50.284Z,22.30
2022-10-17T00:54:21.787Z,22.25
2022-10-17T00:56:53.484Z,22.30
2022-10-17T00:59:23.328Z,22.22
2022-10-17T01:02:06.468Z,22.23
2022-10-17T01:04:34.148Z,22.27
2022-10-17T01:07:03.376Z,22.22
2022-10-17T01:09:31.869Z,22.21
2022-10-17T01:12:31.929Z,22.22
2022-10-17T01:15:18.082Z,22.20
2022-10-17T01:18:07.494Z,22.14
2022-10-17T01:20:49.877Z,22.04
2022-10-17T01:23:42.217Z,22.09
2022-10-17T01:26:36.445Z,22.05
2022-10-17T01:29:31.262Z,22.04
2022-10-17T01:32:14.719Z,22.03
2022-10-17T01:35:26.422Z,22.04
2022-10-17T01:38:33.816Z,22.10
2022-10-17T01:41:15.535Z,22.10
2022-10-17T01:44:07.866Z,22.01
2022-10-17T01:46:49.418Z,22.07
2022-10-17T01:49:29.883Z,22.01
2022-10-17T01:52:35.330Z,22.02
2022-10-17T01:55:23.120Z,22.07
2022-10-17T01:58:03.995Z,22.08
2022-10-17T02:00:34.604Z,22.07
2022-10-17T02:03:07.601Z,22.03
2022-10-17T02:05:44.278Z,22.02
2022-10-17T02:08:13.257Z,22.06
2022-10-17T02:11:08.169Z,22.10
2022-10-17T02:14:02.302Z,22.14
2022-10-17T02:16:36.471Z,22.18
2022-10-17T02:19:16.935Z,22.15
2022-10-17T02:22:05.885Z,22.16
2022-10-17T02:24:34.018Z,22.19
2022-10-17T02:30:26.608Z,22.13
2022-10-17T02:33:43.015Z,22.08
2022-10-17T02:36:28.103Z,21.93
2022-10-17T02:39:08.088Z,21.98
2022-10-17T02:41:49.560Z,22.03
2022-10-17T02:44:47.971Z,22.01
2022-10-17T02:47:39.583Z,22.06
2022-10-17T02:50:08.339Z,22.00
2022-10-17T02:52:47.177Z,22.05
2022-10-17T02:55:20.864Z,22.05
2022-10-17T02:57:55.189Z,21.98
2022-10-17T03:00:24.361Z,21.96
2022-10-17T03:02:54.204Z,22.00
2022-10-17T03:05:43.213Z,22.05
2022-10-17T03:08:12.575Z,22.03
2022-10-17T03:10:40.223Z,22.05
2022-10-17T03:13:14.351Z,22.09
2022-10-17T03:15:43.631Z,22.06
2022-10-17T03:18:13.253Z,22.01
2022-10-17T03:20:40.827Z,22.03
2022-10-17T03:23:09.584Z,22.06
2022-10-17T03:25:38.552Z,22.06
2022-10-17T03:28:06.172Z,22.10
2022-10-17T03:30:34.237Z,22.08
2022-10-17T03:33:01.565Z,21.90
2022-10-17T03:36:06.211Z,21.91
2022-10-17T03:38:35.513Z,21.96
2022-10-17T03:41:04.925Z,21.86
2022-10-17T03:43:38.220Z,21.88
2022-10-17T03:46:07.677Z,21.89
2022-10-17T03:48:36.699Z,21.92
2022-10-17T03:51:12.451Z,21.94
2022-10-17T03:53:47.661Z,21.99
2022-10-17T03:56:22.304Z,22.02
2022-10-17T03:58:57.656Z,22.06
2022-10-17T04:01:25.675Z,22.08
2022-10-17T04:03:55.770Z,22.09
2022-10-17T04:06:26.253Z,21.93
2022-10-17T04:08:55.178Z,21.92
2022-10-17T04:11:28.315Z,21.95
2022-10-17T04:14:00.333Z,22.01
2022-10-17T04:16:29.671Z,22.05
2022-10-17T04:19:02.028Z,22.00
2022-10-17T04:21:36.700Z,21.95
2022-10-17T04:24:07.446Z,21.90
2022-10-17T04:26:53.345Z,21.90
2022-10-17T04:29:23.202Z,21.75
2022-10-17T04:31:53.458Z,21.76
2022-10-17T04:34:37.412Z,21.84
2022-10-17T04:37:07.112Z,21.74
2022-10-17T04:39:35.643Z,21.75
2022-10-17T04:42:03.507Z,21.79
2022-10-17T04:44:31.721Z,21.72
2022-10-17T04:47:01.588Z,21.56
2022-10-17T04:49:29.121Z,21.60
2022-10-17T04:52:03.474Z,21.53
2022-10-17T04:54:57.246Z,21.65
2022-10-17T04:57:25.456Z,21.68
2022-10-17T05:00:00.767Z,21.69
2022-10-17T05:02:46.780Z,21.73
2022-10-17T05:05:15.434Z,21.75
2022-10-17T05:07:54.621Z,21.69
2022-10-17T05:10:26.022Z,21.62
2022-10-17T05:12:54.558Z,21.57
2022-10-17T05:15:24.573Z,21.56
2022-10-17T05:17:58.173Z,21.41
2022-10-17T05:20:28.256Z,21.45
2022-10-17T05:22:56.671Z,21.44
2022-10-17T05:25:24.849Z,21.44
2022-10-17T05:27:52.263Z,21.47
2022-10-17T05:30:19.726Z,21.54
2022-10-17T05:32:53.224Z,21.56
2022-10-17T05:35:21.336Z,21.54
2022-10-17T05:37:49.133Z,21.51
2022-10-17T05:40:24.143Z,21.47
2022-10-17T05:42:53.954Z,21.46
2022-10-17T05:45:22.509Z,21.46
2022-10-17T05:47:50.361Z,21.46
2022-10-17T05:50:21.990Z,21.51
2022-10-17T05:53:02.454Z,21.50
2022-10-17T05:55:30.592Z,21.44
2022-10-17T05:58:01.124Z,21.43
2022-10-17T06:00:34.449Z,21.48
2022-10-17T06:03:02.852Z,21.43
2022-10-17T06:05:30.800Z,21.42
2022-10-17T06:08:01.833Z,21.40
2022-10-17T06:10:34.273Z,21.47
2022-10-17T06:13:02.051Z,21.54
2022-10-17T06:15:29.947Z,21.67
2022-10-17T06:18:09.085Z,21.77
2022-10-17T06:20:36.729Z,21.74
2022-10-17T06:23:04.296Z,21.87
2022-10-17T06:25:59.616Z,21.89
2022-10-17T06:28:27.848Z,21.96
2022-10-17T06:30:55.961Z,22.04
2022-10-17T06:33:24.830Z,22.08
2022-10-17T06:35:55.305Z,22.13
2022-10-17T06:38:24.941Z,22.22
2022-10-17T06:40:57.680Z,22.20
2022-10-17T06:43:27.773Z,22.09
2022-10-17T06:46:21.399Z,22.16
2022-10-17T06:48:59.759Z,22.20
2022-10-17T06:51:38.369Z,22.22
2022-10-17T06:54:10.446Z,22.28
2022-10-17T06:56:50.146Z,22.27
2022-10-17T06:59:39.668Z,22.21
2022-10-17T07:02:25.649Z,22.22
2022-10-17T07:04:54.645Z,22.22
2022-10-17T07:07:23.049Z,22.21
2022-10-17T07:09:52.094Z,22.34
2022-10-17T07:12:20.694Z,22.41
2022-10-17T07:14:50.674Z,22.41
2022-10-17T07:17:19.363Z,22.41
2022-10-17T07:19:47.657Z,22.49
2022-10-17T07:22:15.229Z,22.50
2022-10-17T07:24:46.951Z,22.60
2022-10-17T07:27:53.644Z,22.65
2022-10-17T07:30:23.469Z,22.71
2022-10-17T07:33:00.060Z,22.70
2022-10-17T07:35:28.026Z,22.76
2022-10-17T07:37:57.707Z,22.79
2022-10-17T07:40:25.628Z,22.75
2022-10-17T07:42:53.585Z,22.78
2022-10-17T07:45:21.386Z,22.70
2022-10-17T07:47:48.984Z,22.60
2022-10-17T07:50:17.877Z,22.61
2022-10-17T07:52:45.335Z,22.59
2022-10-17T07:55:16.046Z,22.60
2022-10-17T07:57:43.733Z,22.55
2022-10-17T08:00:13.331Z,22.56
2022-10-17T08:02:41.855Z,22.57
2022-10-17T08:05:09.470Z,22.62
2022-10-17T08:07:36.912Z,22.59
2022-10-17T08:10:04.806Z,22.47
2022-10-17T08:12:36.042Z,22.67
2022-10-17T08:15:05.853Z,22.69
2022-10-17T08:17:36.512Z,22.74
2022-10-17T08:20:05.651Z,22.82
2022-10-17T08:22:34.202Z,22.88
2022-10-17T08:25:01.789Z,23.00
2022-10-17T08:27:29.383Z,23.07
2022-10-17T08:29:57.621Z,23.11
2022-10-17T08:32:27.733Z,23.23
2022-10-17T08:34:57.088Z,23.23
2022-10-17T08:37:24.514Z,23.33
2022-10-17T08:39:51.896Z,23.37
2022-10-17T08:42:51.266Z,23.46
2022-10-17T08:45:42.137Z,23.50
2022-10-17T08:48:15.190Z,23.51
2022-10-17T08:50:59.592Z,23.54
2022-10-17T08:53:59.006Z,23.55
2022-10-17T08:56:44.459Z,23.58
2022-10-17T08:59:23.830Z,23.52
2022-10-17T09:02:03.514Z,23.49
2022-10-17T09:05:02.168Z,23.45
2022-10-17T09:07:46.577Z,23.39
2022-10-17T09:10:44.154Z,23.43
2022-10-17T09:13:42.366Z,23.20
2022-10-17T09:16:19.333Z,23.00
2022-10-17T09:19:05.018Z,23.02
2022-10-17T09:21:57.793Z,23.04
2022-10-17T09:24:48.491Z,23.25
2022-10-17T09:27:43.126Z,23.47
2022-10-17T09:30:40.530Z,23.64
2022-10-17T09:33:35.280Z,23.85
2022-10-17T09:36:23.708Z,23.96
2022-10-17T09:38:58.540Z,23.97
2022-10-17T09:41:46.797Z,24.06
2022-10-17T09:44:25.273Z,24.20
2022-10-17T09:47:06.030Z,24.30
2022-10-17T09:49:36.668Z,24.34
2022-10-17T09:52:06.173Z,24.42
2022-10-17T09:54:53.204Z,24.57
2022-10-17T09:57:22.601Z,24.65
2022-10-17T10:00:06.106Z,24.64
2022-10-17T10:02:41.129Z,24.64
2022-10-17T10:05:22.048Z,24.74
2022-10-17T10:08:04.206Z,24.72
2022-10-17T10:10:32.733Z,24.88
2022-10-17T10:13:14.360Z,24.90
2022-10-17T10:15:50.489Z,24.91
2022-10-17T10:18:27.113Z,25.01
2022-10-17T10:21:17.142Z,24.96
2022-10-17T10:23:46.730Z,24.96
2022-10-17T10:26:24.782Z,25.02
2022-10-17T10:29:05.957Z,25.08
2022-10-17T10:31:38.879Z,25.12
2022-10-17T10:34:26.658Z,25.31
2022-10-17T10:36:59.744Z,25.28
2022-10-17T10:40:05.958Z,25.17
2022-10-17T10:42:38.240Z,25.07
2022-10-17T10:45:29.249Z,25.21
2022-10-17T10:48:25.546Z,25.28
2022-10-17T10:51:01.803Z,25.30
2022-10-17T10:53:39.451Z,25.43
2022-10-17T10:56:21.250Z,25.57
2022-10-17T10:59:21.154Z,25.59
2022-10-17T11:02:00.432Z,25.52
2022-10-17T11:04:52.491Z,25.44
2022-10-17T11:07:25.320Z,25.45
2022-10-17T11:09:55.678Z,25.59
2022-10-17T11:12:35.651Z,25.67
2022-10-17T11:15:44.251Z,25.79
2022-10-17T11:18:23.270Z,25.77
2022-10-17T11:21:04.229Z,25.80
2022-10-17T11:23:48.411Z,25.88
2022-10-17T11:26:39.253Z,25.81
2022-10-17T11:29:13.494Z,25.98
2022-10-17T11:31:47.632Z,25.88
2022-10-17T11:34:33.601Z,25.96
2022-10-17T11:37:13.305Z,25.93
2022-10-17T11:39:58.707Z,25.99
2022-10-17T11:42:42.010Z,25.94
2022-10-17T11:45:25.852Z,26.10
2022-10-17T11:48:00.529Z,26.13
2022-10-17T11:53:26.659Z,26.02
2022-10-17T11:55:58.754Z,25.98
2022-10-17T11:58:42.494Z,26.05
2022-10-17T12:01:23.983Z,26.13
2022-10-17T12:04:14.413Z,26.12
2022-10-17T12:07:06.862Z,26.19
2022-10-17T12:10:02.037Z,26.13
2022-10-17T12:12:33.781Z,26.01
2022-10-17T12:15:13.545Z,26.06
2022-10-17T12:17:47.268Z,25.97
2022-10-17T12:20:21.555Z,25.91
2022-10-17T12:22:51.982Z,26.00
2022-10-17T12:25:33.836Z,26.04
2022-10-17T12:28:07.090Z,25.76
2022-10-17T12:30:35.326Z,25.76
2022-10-17T12:33:17.790Z,25.70
2022-10-17T12:35:45.672Z,25.79
2022-10-17T12:38:23.028Z,25.83
2022-10-17T12:40:52.868Z,25.77
2022-10-17T12:43:29.499Z,25.80
2022-10-17T12:45:58.334Z,25.83
2022-10-17T12:48:35.102Z,25.78
2022-10-17T12:51:31.125Z,25.71
2022-10-17T12:54:15.480Z,25.75
2022-10-17T12:56:46.108Z,25.64
2022-10-17T12:59:29.810Z,25.63
2022-10-17T13:02:02.020Z,25.63
2022-10-17T13:04:32.020Z,25.60
2022-10-17T13:07:01.580Z,25.61
2022-10-17T13:09:44.148Z,25.68
2022-10-17T13:12:26.772Z,25.72
2022-10-17T13:14:55.456Z,25.60
2022-10-17T13:17:29.588Z,25.53
2022-10-17T13:19:58.232Z,25.47
2022-10-17T13:22:32.687Z,25.39
2022-10-17T13:25:16.264Z,25.41
2022-10-17T13:27:48.452Z,25.37
2022-10-17T13:30:30.910Z,25.37
2022-10-17T13:33:02.358Z,25.26
2022-10-17T13:35:58.867Z,25.18
2022-10-17T13:38:28.886Z,25.24
2022-10-17T13:41:02.038Z,25.13
2022-10-17T13:43:41.999Z,25.10
2022-10-17T13:46:36.744Z,25.14
2022-10-17T13:49:30.372Z,25.19
2022-10-17T13:51:59.539Z,25.16
2022-10-17T13:54:37.251Z,25.27
2022-10-17T13:57:06.376Z,25.19
2022-10-17T13:59:41.257Z,25.20
2022-10-17T14:02:17.557Z,25.29
2022-10-17T14:05:15.296Z,25.29
2022-10-17T14:08:09.312Z,25.40
2022-10-17T14:10:39.745Z,25.31
2022-10-17T14:13:30.685Z,25.31
2022-10-17T14:16:04.539Z,25.39
2022-10-17T14:18:36.691Z,25.52
2022-10-17T14:24:13.441Z,25.47
2022-10-17T14:26:52.780Z,25.52
2022-10-17T14:29:28.953Z,25.49
2022-10-17T14:32:15.570Z,25.51
2022-10-17T14:34:43.549Z,25.63
2022-10-17T14:37:21.119Z,25.49
2022-10-17T14:39:52.180Z,25.35
2022-10-17T14:42:21.971Z,25.22
2022-10-17T14:44:51.404Z,25.23
2022-10-17T14:47:42.121Z,25.32
2022-10-17T14:50:12.920Z,25.28
2022-10-17T14:52:41.139Z,25.36
2022-10-17T14:55:24.402Z,25.40
2022-10-17T14:57:51.836Z,25.51
2022-10-17T15:00:21.778Z,25.56
2022-10-17T15:02:54.633Z,25.62
2022-10-17T15:05:23.668Z,25.68
2022-10-17T15:07:51.640Z,25.58
2022-10-17T15:10:28.608Z,25.62
2022-10-17T15:12:59.167Z,25.66
2022-10-17T15:15:33.421Z,25.75
2022-10-17T15:18:01.025Z,25.78
2022-10-17T15:20:30.732Z,25.68
2022-10-17T15:23:00.537Z,25.59
2022-10-17T15:25:29.541Z,25.52
2022-10-17T15:27:57.545Z,25.47
2022-10-17T15:30:28.677Z,25.28
2022-10-17T15:32:56.527Z,25.29
2022-10-17T15:35:23.950Z,25.18
2022-10-17T15:37:51.498Z,25.25
2022-10-17T15:40:30.143Z,25.18
2022-10-17T15:42:57.549Z,25.23
2022-10-17T15:45:25.339Z,25.11
2022-10-17T15:48:00.788Z,24.93
2022-10-17T15:50:30.794Z,24.97
2022-10-17T15:52:58.598Z,25.03
2022-10-17T15:55:26.346Z,25.07
2022-10-17T15:57:53.686Z,25.10
2022-10-17T16:00:24.492Z,25.04
2022-10-17T16:02:53.020Z,25.12
2022-10-17T16:05:26.490Z,25.06
2022-10-17T16:07:54.782Z,24.93
2022-10-17T16:10:23.574Z,24.95
2022-10-17T16:12:50.868Z,24.89
2022-10-17T16:15:28.327Z,24.85
2022-10-17T16:18:00.460Z,24.85
2022-10-17T16:20:30.264Z,24.88
2022-10-17T16:23:00.909Z,24.84
2022-10-17T16:25:30.231Z,24.80
2022-10-17T16:27:59.570Z,24.84
2022-10-17T16:30:29.712Z,24.81
2022-10-17T16:32:57.668Z,24.78
2022-10-17T16:35:31.863Z,24.73
2022-10-17T16:38:02.626Z,24.74
2022-10-17T16:40:30.394Z,24.67
2022-10-17T16:43:00.757Z,24.64
2022-10-17T16:45:28.378Z,24.72
2022-10-17T16:47:55.954Z,24.63
2022-10-17T16:50:25.057Z,24.62
2022-10-17T16:52:52.578Z,24.56
2022-10-17T16:55:19.954Z,24.60
2022-10-17T16:57:49.334Z,24.64
2022-10-17T17:00:17.962Z,24.63
2022-10-17T17:02:48.685Z,24.59
2022-10-17T17:05:16.451Z,24.52
2022-10-17T17:07:44.236Z,24.54
2022-10-17T17:10:11.652Z,24.52
2022-10-17T17:12:38.934Z,24.52
2022-10-17T17:15:06.555Z,24.50
2022-10-17T17:17:50.319Z,24.48
2022-10-17T17:20:19.987Z,24.51
2022-10-17T17:22:47.346Z,24.46
2022-10-17T17:25:14.922Z,24.55
2022-10-17T17:27:42.165Z,24.57
2022-10-17T17:30:10.474Z,24.53
2022-10-17T17:32:43.268Z,24.48
2022-10-17T17:35:10.784Z,24.46
2022-10-17T17:37:38.757Z,24.40
2022-10-17T17:40:06.975Z,24.43
2022-10-17T17:42:34.413Z,24.40
2022-10-17T17:45:02.021Z,24.42
2022-10-17T17:47:30.161Z,24.43
2022-10-17T17:49:57.785Z,24.44
2022-10-17T17:52:25.163Z,24.47
2022-10-17T17:54:52.583Z,24.47
2022-10-17T17:57:20.075Z,24.44
2022-10-17T17:59:50.233Z,24.46
2022-10-17T18:02:17.671Z,24.42
2022-10-17T18:04:45.075Z,24.37
2022-10-17T18:07:14.171Z,24.37
2022-10-17T18:09:42.240Z,24.36
2022-10-17T18:12:17.704Z,24.27
2022-10-17T18:14:49.243Z,24.32
2022-10-17T18:17:24.683Z,24.31
2022-10-17T18:20:02.492Z,24.28
2022-10-17T18:22:30.816Z,24.29
2022-10-17T18:25:03.263Z,24.32
2022-10-17T18:27:33.052Z,24.27
2022-10-17T18:30:00.316Z,24.30
2022-10-17T18:35:45.677Z,24.25
2022-10-17T18:38:13.883Z,24.23
2022-10-17T18:40:41.281Z,24.23
2022-10-17T18:43:08.630Z,24.24
2022-10-17T18:45:47.973Z,24.14
2022-10-17T18:48:15.467Z,24.19
2022-10-17T18:50:43.803Z,24.24
2022-10-17T18:53:11.052Z,24.24
2022-10-17T18:55:40.297Z,24.23
2022-10-17T18:58:07.575Z,24.23
2022-10-17T19:00:34.869Z,24.24
2022-10-17T19:03:05.392Z,24.21
2022-10-17T19:05:34.277Z,24.23
2022-10-17T19:08:01.494Z,24.13
2022-10-17T19:10:28.840Z,24.13
2022-10-17T19:12:56.268Z,24.13
2022-10-17T19:15:25.948Z,24.07
2022-10-17T19:17:58.607Z,24.09
2022-10-17T19:20:26.177Z,24.09
2022-10-17T19:22:54.590Z,24.06
2022-10-17T19:25:22.810Z,24.09
2022-10-17T19:27:50.078Z,24.05
2022-10-17T19:30:19.598Z,24.07
2022-10-17T19:32:48.667Z,24.11
2022-10-17T19:35:16.442Z,24.06
2022-10-17T19:37:51.921Z,24.09
2022-10-17T19:40:19.279Z,24.12
2022-10-17T19:42:46.497Z,24.13
2022-10-17T19:45:13.946Z,24.16
2022-10-17T19:47:41.139Z,24.16
2022-10-17T19:50:08.781Z,24.18
2022-10-17T19:52:36.433Z,24.22
2022-10-17T19:55:03.874Z,24.21
2022-10-17T19:57:31.676Z,24.18
2022-10-17T19:59:59.556Z,24.18
2022-10-17T20:02:27.297Z,24.19
2022-10-17T20:05:17.093Z,24.23
2022-10-17T20:07:45.502Z,24.23
2022-10-17T20:10:12.921Z,24.24
2022-10-17T20:12:40.018Z,24.20
2022-10-17T20:15:08.776Z,24.18
2022-10-17T20:17:36.526Z,24.21
2022-10-17T20:20:08.731Z,24.21
2022-10-17T20:22:47.376Z,24.14
2022-10-17T20:25:18.578Z,24.13
2022-10-17T20:27:46.444Z,24.12
2022-10-17T20:30:19.292Z,24.05
2022-10-17T20:32:48.952Z,24.07
2022-10-17T20:35:16.297Z,24.04
2022-10-17T20:37:43.388Z,24.07
2022-10-17T20:40:34.195Z,24.11
2022-10-17T20:43:01.260Z,24.13
2022-10-17T20:45:43.611Z,24.14
2022-10-17T20:48:16.695Z,24.08
2022-10-17T20:50:45.169Z,24.09
2022-10-17T20:56:09.272Z,24.07
2022-10-17T20:58:36.596Z,24.07
2022-10-17T21:01:09.217Z,24.05
2022-10-17T21:03:41.015Z,24.05
2022-10-17T21:06:15.855Z,24.09
2022-10-17T21:08:43.595Z,24.06
2022-10-17T21:11:19.605Z,24.08
2022-10-17T21:13:48.294Z,24.11
2022-10-17T21:16:22.922Z,24.02
2022-10-17T21:18:55.066Z,24.03
2022-10-17T21:21:30.751Z,24.05
2022-10-17T21:24:01.560Z,24.05
2022-10-17T21:26:29.845Z,24.04
2022-10-17T21:28:59.602Z,24.07
2022-10-17T21:31:28.665Z,24.06
2022-10-17T21:34:04.979Z,23.97
2022-10-17T21:36:32.335Z,24.00
2022-10-17T21:38:59.606Z,24.01
2022-10-17T21:41:29.180Z,24.01
2022-10-17T21:44:07.697Z,23.99
2022-10-17T21:46:35.105Z,23.86
2022-10-17T21:49:03.122Z,23.87
2022-10-17T21:51:30.572Z,23.84
2022-10-17T21:53:58.505Z,23.84
2022-10-17T21:56:30.042Z,23.78
2022-10-17T21:58:58.778Z,23.75
2022-10-17T22:01:31.652Z,23.78
2022-10-17T22:04:03.173Z,23.75
2022-10-17T22:06:41.171Z,23.73
2022-10-17T22:09:14.331Z,23.66
2022-10-17T22:11:42.407Z,23.58
2022-10-17T22:14:15.018Z,23.60
2022-10-17T22:16:44.490Z,23.57
2022-10-17T22:19:13.697Z,23.54
2022-10-17T22:21:41.192Z,23.54
2022-10-17T22:24:12.556Z,23.54
2022-10-17T22:26:43.349Z,23.50
2022-10-17T22:29:11.131Z,23.54
2022-10-17T22:31:39.453Z,23.54
2022-10-17T22:34:07.820Z,23.51
2022-10-17T22:36:36.331Z,23.51
2022-10-17T22:39:04.908Z,23.46
2022-10-17T22:41:32.329Z,23.53
2022-10-17T22:44:00.862Z,23.55
2022-10-17T22:46:28.594Z,23.55
2022-10-17T22:48:58.930Z,23.55
2022-10-17T22:51:27.333Z,23.55
2022-10-17T22:53:54.524Z,23.52
2022-10-17T22:56:24.558Z,23.53
2022-10-17T22:58:52.817Z,23.54
2022-10-17T23:01:29.426Z,23.51
2022-10-17T23:03:59.284Z,23.52
2022-10-17T23:06:27.069Z,23.53
2022-10-17T23:08:54.209Z,23.53
2022-10-17T23:11:22.033Z,23.54
2022-10-17T23:13:57.479Z,23.49
2022-10-17T23:16:24.877Z,23.42
2022-10-17T23:18:55.502Z,23.42
2022-10-17T23:21:22.983Z,23.41
2022-10-17T23:23:51.242Z,23.42
2022-10-17T23:26:18.594Z,23.40
2022-10-17T23:28:45.837Z,23.40
2022-10-17T23:31:18.923Z,23.37
2022-10-17T23:33:48.435Z,23.25
2022-10-17T23:36:19.253Z,23.13
2022-10-17T23:38:48.109Z,23.07
2022-10-17T23:41:15.511Z,23.06
2022-10-17T23:43:43.956Z,23.03
2022-10-17T23:46:11.618Z,23.02
2022-10-17T23:48:39.684Z,23.07
2022-10-17T23:51:08.936Z,23.05
2022-10-17T23:53:40.076Z,23.04
2022-10-17T23:56:11.938Z,23.08
2022-10-17T23:58:39.583Z,23.08
